Time;durP1;ratioP1;P1;durP2;ratioP2;P2;SDS_P1;SDS_P2;PMS_P1;PMS_P2;Temp;Humidity;BMP_temperature;BMP_pressure;BME280_temperature;BME280_humidity;BME280_pressure;Samples;Min_cycle;Max_cycle;Signal;HPM_P1;HPM_P2
2021/05/08 00:02:22;;;;;;;15.53;12.20;;;;;;;;;;5060382;28;20291;-72
2021/05/08 00:04:47;;;;;;;18.00;11.90;;;;;;;;;;5059705;28;20208;-71
2021/05/08 00:07:12;;;;;;;15.67;12.37;;;;;;;;;;5060694;28;20177;-72
2021/05/08 00:09:37;;;;;;;16.40;12.03;;;;;;;;;;5064463;28;20173;-71
2021/05/08 00:12:03;;;;;;;17.00;11.73;;;;;;;;;;5054582;28;20236;-70
2021/05/08 00:14:28;;;;;;;17.23;12.57;;;;;;;;;;5057040;28;20184;-71
2021/05/08 00:16:53;;;;;;;18.60;13.40;;;;;;;;;;5058234;28;20669;-69
2021/05/08 00:19:18;;;;;;;21.50;14.03;;;;;;;;;;5066367;28;20181;-71
2021/05/08 00:21:45;;;;;;;20.23;14.17;;;;;;;;;;5055193;28;20201;-72
2021/05/08 00:24:10;;;;;;;19.40;14.17;;;;;;;;;;5060368;28;20562;-70
2021/05/08 00:26:35;;;;;;;16.67;13.90;;;;;;;;;;5059888;28;20184;-72
2021/05/08 00:29:00;;;;;;;24.47;15.07;;;;;;;;;;5063306;28;20204;-71
2021/05/08 00:31:26;;;;;;;18.13;13.53;;;;;;;;;;5068816;28;20220;-71
2021/05/08 00:33:51;;;;;;;20.77;14.90;;;;;;;;;;5059057;28;20527;-71
2021/05/08 00:36:16;;;;;;;23.03;15.13;;;;;;;;;;5062514;28;20383;-71
2021/05/08 00:38:42;;;;;;;18.37;14.27;;;;;;;;;;5062243;28;20181;-71
2021/05/08 00:41:07;;;;;;;16.00;12.47;;;;;;;;;;5061044;28;20231;-71
2021/05/08 00:43:32;;;;;;;20.80;13.73;;;;;;;;;;5063290;28;20173;-71
2021/05/08 00:45:57;;;;;;;21.37;13.77;;;;;;;;;;5061061;28;20212;-71
2021/05/08 00:48:23;;;;;;;18.43;13.23;;;;;;;;;;5060878;28;20216;-71
2021/05/08 00:50:50;;;;;;;20.73;13.53;;;;;;;;;;5059450;28;20200;-72
2021/05/08 00:53:16;;;;;;;17.23;13.07;;;;;;;;;;5056633;28;20197;-70
2021/05/08 00:55:41;;;;;;;26.50;15.53;;;;;;;;;;5066609;28;20184;-70
2021/05/08 00:58:07;;;;;;;20.77;14.50;;;;;;;;;;5066534;28;20181;-70
2021/05/08 01:00:33;;;;;;;19.27;15.07;;;;;;;;;;5067951;28;20227;-70
2021/05/08 01:02:58;;;;;;;20.00;14.13;;;;;;;;;;5064240;28;20620;-70
2021/05/08 01:05:23;;;;;;;19.37;14.40;;;;;;;;;;5060201;28;20211;-70
2021/05/08 01:07:49;;;;;;;19.07;15.03;;;;;;;;;;5060872;28;20259;-71
2021/05/08 01:10:15;;;;;;;21.93;16.20;;;;;;;;;;5057585;28;20196;-72
2021/05/08 01:12:40;;;;;;;19.90;13.97;;;;;;;;;;5066043;28;20551;-70
2021/05/08 01:15:06;;;;;;;22.00;13.77;;;;;;;;;;5058785;28;20180;-72
2021/05/08 01:17:32;;;;;;;27.37;15.77;;;;;;;;;;5061281;28;20185;-71
2021/05/08 01:19:57;;;;;;;19.23;14.43;;;;;;;;;;5062999;28;20220;-71
2021/05/08 01:22:22;;;;;;;21.10;14.20;;;;;;;;;;5066544;28;20626;-70
2021/05/08 01:24:47;;;;;;;21.10;14.57;;;;;;;;;;5063367;28;20639;-72
2021/05/08 01:27:13;;;;;;;23.07;15.43;;;;;;;;;;5066897;28;20202;-70
2021/05/08 01:29:38;;;;;;;21.67;15.63;;;;;;;;;;5056602;28;20169;-72
2021/05/08 01:32:03;;;;;;;21.90;15.40;;;;;;;;;;5065757;28;20665;-72
2021/05/08 01:34:28;;;;;;;22.37;16.70;;;;;;;;;;5057444;28;20195;-72
2021/05/08 01:36:53;;;;;;;21.37;15.60;;;;;;;;;;5061041;28;20196;-72
2021/05/08 01:39:19;;;;;;;21.43;15.60;;;;;;;;;;5060248;28;20663;-73
2021/05/08 01:41:44;;;;;;;21.97;16.50;;;;;;;;;;5061231;28;20250;-71
2021/05/08 01:44:09;;;;;;;23.80;16.13;;;;;;;;;;5057884;28;20197;-72
2021/05/08 01:46:35;;;;;;;23.47;16.37;;;;;;;;;;5059319;28;20181;-71
2021/05/08 01:49:01;;;;;;;21.77;15.77;;;;;;;;;;5065665;28;20180;-71
2021/05/08 01:51:26;;;;;;;22.07;17.30;;;;;;;;;;5063274;28;20192;-71
2021/05/08 01:53:51;;;;;;;21.07;17.23;;;;;;;;;;5061417;28;20204;-71
2021/05/08 01:56:16;;;;;;;22.67;16.03;;;;;;;;;;5058010;28;20181;-71
2021/05/08 01:58:42;;;;;;;23.67;17.57;;;;;;;;;;5063897;28;20177;-71
2021/05/08 02:01:07;;;;;;;22.20;16.33;;;;;;;;;;5064008;28;20193;-70
2021/05/08 02:03:32;;;;;;;28.30;19.67;;;;;;;;;;5060958;28;20169;-72
2021/05/08 02:05:57;;;;;;;25.97;18.53;;;;;;;;;;5054197;28;20718;-71
2021/05/08 02:08:22;;;;;;;24.40;18.23;;;;;;;;;;5071774;28;20195;-71
2021/05/08 02:10:47;;;;;;;22.83;17.30;;;;;;;;;;5060923;28;20169;-70
2021/05/08 02:13:14;;;;;;;26.17;17.53;;;;;;;;;;5062171;28;20185;-71
2021/05/08 02:15:39;;;;;;;25.00;18.37;;;;;;;;;;5055082;28;20231;-73
2021/05/08 02:18:05;;;;;;;22.10;17.83;;;;;;;;;;5063590;28;20185;-72
2021/05/08 02:20:31;;;;;;;22.73;17.10;;;;;;;;;;5064778;28;20176;-71
2021/05/08 02:22:58;;;;;;;24.73;17.97;;;;;;;;;;5063711;28;20564;-71
2021/05/08 02:25:23;;;;;;;25.00;17.57;;;;;;;;;;5061197;28;20261;-71
2021/05/08 02:27:49;;;;;;;23.80;17.57;;;;;;;;;;5061692;28;20263;-70
2021/05/08 02:30:15;;;;;;;23.20;17.97;;;;;;;;;;5063507;28;20447;-70
2021/05/08 02:32:41;;;;;;;24.93;18.00;;;;;;;;;;5054951;28;20703;-70
2021/05/08 02:35:07;;;;;;;22.63;17.83;;;;;;;;;;5063360;28;20288;-71
2021/05/08 02:37:33;;;;;;;24.00;18.40;;;;;;;;;;5061597;28;20185;-70
2021/05/08 02:39:58;;;;;;;24.30;18.13;;;;;;;;;;5062807;28;20192;-69
2021/05/08 02:42:23;;;;;;;21.67;16.57;;;;;;;;;;5065679;28;20193;-71
2021/05/08 02:44:48;;;;;;;23.50;16.40;;;;;;;;;;5060120;28;20243;-71
2021/05/08 02:47:19;;;;;;;25.40;16.90;;;;;;;;;;5060241;28;21494;-71
2021/05/08 02:49:46;;;;;;;22.57;17.27;;;;;;;;;;5060538;28;20247;-71
2021/05/08 02:52:11;;;;;;;23.70;16.33;;;;;;;;;;5053738;28;20232;-71
2021/05/08 02:54:36;;;;;;;24.60;17.30;;;;;;;;;;5056883;28;20205;-71
2021/05/08 02:57:01;;;;;;;20.17;16.00;;;;;;;;;;5054073;28;20263;-70
2021/05/08 02:59:26;;;;;;;23.97;16.97;;;;;;;;;;5063122;28;20168;-71
2021/05/08 03:01:51;;;;;;;21.33;15.70;;;;;;;;;;5059447;28;20197;-71
2021/05/08 03:04:16;;;;;;;24.30;16.87;;;;;;;;;;5055322;28;20649;-71
2021/05/08 03:06:42;;;;;;;20.50;15.87;;;;;;;;;;5059985;28;20227;-71
2021/05/08 03:09:07;;;;;;;19.67;16.47;;;;;;;;;;5063211;28;20606;-71
2021/05/08 03:11:32;;;;;;;22.13;15.63;;;;;;;;;;5061165;28;20235;-71
2021/05/08 03:13:57;;;;;;;22.97;16.27;;;;;;;;;;5061669;28;20619;-71
2021/05/08 03:16:22;;;;;;;21.67;16.53;;;;;;;;;;5055648;28;20170;-72
2021/05/08 03:18:47;;;;;;;21.87;17.37;;;;;;;;;;5061878;28;20169;-72
2021/05/08 03:21:13;;;;;;;23.03;17.00;;;;;;;;;;5058513;28;20729;-71
2021/05/08 03:23:38;;;;;;;21.27;15.93;;;;;;;;;;5057631;28;20169;-71
2021/05/08 03:26:03;;;;;;;23.53;15.57;;;;;;;;;;5053931;28;20231;-71
2021/05/08 03:28:28;;;;;;;20.17;16.30;;;;;;;;;;5058014;28;20180;-71
2021/05/08 03:30:53;;;;;;;22.07;16.13;;;;;;;;;;5055967;28;20212;-71
2021/05/08 03:33:19;;;;;;;20.97;16.93;;;;;;;;;;5058658;28;20314;-70
2021/05/08 03:35:44;;;;;;;22.87;16.37;;;;;;;;;;5062580;28;20197;-71
2021/05/08 03:38:09;;;;;;;29.97;17.27;;;;;;;;;;5057314;28;20182;-71
2021/05/08 03:40:34;;;;;;;20.13;15.57;;;;;;;;;;5063888;28;20271;-71
2021/05/08 03:42:59;;;;;;;23.17;16.50;;;;;;;;;;5057775;28;20682;-69
2021/05/08 03:45:25;;;;;;;21.17;15.60;;;;;;;;;;5056465;28;20678;-70
2021/05/08 03:47:50;;;;;;;25.63;16.20;;;;;;;;;;5061227;28;20173;-71
2021/05/08 03:50:15;;;;;;;20.30;15.47;;;;;;;;;;5059436;28;20178;-71
2021/05/08 03:52:40;;;;;;;21.53;15.87;;;;;;;;;;5061424;28;20189;-71
2021/05/08 03:55:06;;;;;;;22.03;15.50;;;;;;;;;;5062666;28;20621;-71
2021/05/08 03:57:31;;;;;;;24.33;16.97;;;;;;;;;;5055448;28;20386;-70
2021/05/08 03:59:56;;;;;;;17.80;14.27;;;;;;;;;;5061298;28;20177;-71
2021/05/08 04:02:22;;;;;;;16.23;13.53;;;;;;;;;;5067315;28;20205;-71
2021/05/08 04:04:47;;;;;;;17.03;13.50;;;;;;;;;;5052520;28;20551;-71
2021/05/08 04:07:12;;;;;;;19.40;15.47;;;;;;;;;;5066316;28;20190;-71
2021/05/08 04:09:37;;;;;;;17.80;14.53;;;;;;;;;;5059189;28;20173;-71
2021/05/08 04:12:02;;;;;;;19.87;14.50;;;;;;;;;;5073126;28;20223;-70
2021/05/08 04:14:28;;;;;;;19.93;15.40;;;;;;;;;;5060714;28;20177;-71
2021/05/08 04:16:53;;;;;;;17.00;14.37;;;;;;;;;;5069413;28;20230;-71
2021/05/08 04:19:18;;;;;;;16.33;12.53;;;;;;;;;;5061225;28;20200;-71
2021/05/08 04:21:43;;;;;;;20.50;14.53;;;;;;;;;;5071795;28;20204;-71
2021/05/08 04:24:08;;;;;;;18.07;13.60;;;;;;;;;;5064812;28;20231;-71
2021/05/08 04:26:34;;;;;;;16.00;12.83;;;;;;;;;;5067874;28;20177;-71
2021/05/08 04:28:59;;;;;;;18.47;12.87;;;;;;;;;;5061561;28;20173;-70
2021/05/08 04:31:24;;;;;;;15.63;12.80;;;;;;;;;;5069302;28;20245;-70
2021/05/08 04:33:49;;;;;;;15.57;12.93;;;;;;;;;;5060272;28;20234;-71
2021/05/08 04:36:15;;;;;;;15.30;12.37;;;;;;;;;;5070727;28;20207;-70
2021/05/08 04:38:40;;;;;;;16.20;12.03;;;;;;;;;;5071753;28;20196;-71
2021/05/08 04:41:06;;;;;;;14.00;11.70;;;;;;;;;;5064714;28;20182;-70
2021/05/08 04:43:31;;;;;;;15.70;11.20;;;;;;;;;;5070203;28;20181;-71
2021/05/08 04:45:56;;;;;;;13.80;11.70;;;;;;;;;;5068919;28;20204;-71
2021/05/08 04:48:22;;;;;;;17.33;11.07;;;;;;;;;;5063411;28;20177;-71
2021/05/08 04:50:47;;;;;;;12.70;10.90;;;;;;;;;;5059660;28;20174;-71
2021/05/08 04:53:13;;;;;;;12.07;10.60;;;;;;;;;;5062602;28;20260;-72
2021/05/08 04:55:38;;;;;;;12.77;10.80;;;;;;;;;;5059335;28;20185;-70
2021/05/08 04:58:06;;;;;;;12.30;10.50;;;;;;;;;;5061064;28;20597;-70
2021/05/08 05:00:32;;;;;;;10.93;9.70;;;;;;;;;;5061948;28;20753;-70
2021/05/08 05:02:57;;;;;;;11.23;9.93;;;;;;;;;;5055574;28;20213;-69
2021/05/08 05:05:22;;;;;;;11.20;8.87;;;;;;;;;;5064817;28;20201;-70
2021/05/08 05:07:47;;;;;;;13.10;9.67;;;;;;;;;;5067199;28;20186;-71
2021/05/08 05:10:13;;;;;;;10.43;8.97;;;;;;;;;;5062173;28;20222;-72
2021/05/08 05:12:38;;;;;;;13.10;9.70;;;;;;;;;;5061058;28;20205;-69
2021/05/08 05:15:04;;;;;;;10.37;8.83;;;;;;;;;;5063294;28;20181;-70
2021/05/08 05:17:29;;;;;;;11.57;9.00;;;;;;;;;;5058432;28;20239;-69
2021/05/08 05:19:55;;;;;;;10.67;8.90;;;;;;;;;;5060911;28;20554;-70
2021/05/08 05:22:20;;;;;;;11.47;9.10;;;;;;;;;;5062633;28;20225;-70
2021/05/08 05:24:45;;;;;;;11.27;8.30;;;;;;;;;;5058943;28;20272;-70
2021/05/08 05:27:10;;;;;;;9.93;8.53;;;;;;;;;;5065154;28;20181;-71
2021/05/08 05:29:36;;;;;;;9.93;7.90;;;;;;;;;;5062337;28;20189;-70
2021/05/08 05:32:01;;;;;;;11.20;9.00;;;;;;;;;;5058203;28;20197;-70
2021/05/08 05:34:26;;;;;;;11.47;8.33;;;;;;;;;;5060780;28;20173;-70
2021/05/08 05:36:51;;;;;;;11.90;8.40;;;;;;;;;;5065077;28;20196;-69
2021/05/08 05:39:16;;;;;;;9.90;8.87;;;;;;;;;;5059841;28;20694;-71
2021/05/08 05:41:41;;;;;;;15.57;8.43;;;;;;;;;;5063237;28;20192;-72
2021/05/08 05:44:07;;;;;;;9.03;7.77;;;;;;;;;;5056462;28;20204;-71
2021/05/08 05:46:32;;;;;;;8.53;7.63;;;;;;;;;;5047834;28;20342;-71
2021/05/08 05:48:57;;;;;;;11.40;8.63;;;;;;;;;;5060484;28;20651;-72
2021/05/08 05:51:22;;;;;;;9.73;8.73;;;;;;;;;;5060804;28;20258;-70
2021/05/08 05:53:55;;;;;;;8.70;7.80;;;;;;;;;;5058690;28;20170;-71
2021/05/08 05:56:21;;;;;;;14.03;8.60;;;;;;;;;;5058036;28;20173;-71
2021/05/08 05:58:46;;;;;;;9.57;8.57;;;;;;;;;;5064120;28;20177;-70
2021/05/08 06:01:11;;;;;;;8.67;7.77;;;;;;;;;;5062655;28;20189;-70
2021/05/08 06:03:36;;;;;;;10.27;8.00;;;;;;;;;;5054772;28;20539;-71
2021/05/08 06:06:01;;;;;;;9.83;8.03;;;;;;;;;;5064450;28;20220;-70
2021/05/08 06:08:26;;;;;;;11.53;7.80;;;;;;;;;;5062654;28;20525;-71
2021/05/08 06:10:52;;;;;;;8.20;7.33;;;;;;;;;;5064932;28;20181;-70
2021/05/08 06:13:17;;;;;;;9.97;7.30;;;;;;;;;;5062842;28;20404;-72
2021/05/08 06:15:42;;;;;;;8.57;7.37;;;;;;;;;;5061894;28;20260;-70
2021/05/08 06:18:07;;;;;;;7.87;7.00;;;;;;;;;;5059929;28;20595;-71
2021/05/08 06:20:33;;;;;;;9.83;7.43;;;;;;;;;;5056582;28;20207;-71
2021/05/08 06:22:58;;;;;;;9.17;7.23;;;;;;;;;;5061242;28;20205;-71
2021/05/08 06:25:23;;;;;;;7.83;7.03;;;;;;;;;;5051960;28;20776;-70
2021/05/08 06:27:48;;;;;;;13.80;8.20;;;;;;;;;;5065916;28;20180;-72
2021/05/08 06:30:14;;;;;;;8.67;7.07;;;;;;;;;;5057413;28;20177;-70
2021/05/08 06:32:39;;;;;;;8.77;7.47;;;;;;;;;;5060924;28;20208;-70
2021/05/08 06:35:04;;;;;;;8.30;7.50;;;;;;;;;;5064093;28;20185;-71
2021/05/08 06:37:29;;;;;;;8.03;7.23;;;;;;;;;;5065228;28;20647;-71
2021/05/08 06:39:56;;;;;;;7.93;7.13;;;;;;;;;;5061624;28;20207;-71
2021/05/08 06:42:21;;;;;;;9.63;7.67;;;;;;;;;;5062217;28;20284;-71
2021/05/08 06:44:46;;;;;;;9.63;7.43;;;;;;;;;;5066182;28;20602;-70
2021/05/08 06:47:15;;;;;;;8.10;7.27;;;;;;;;;;5050542;28;20184;-71
2021/05/08 06:49:41;;;;;;;9.83;6.90;;;;;;;;;;5061699;28;20169;-71
2021/05/08 06:52:06;;;;;;;7.47;6.67;;;;;;;;;;5056359;28;20205;-70
2021/05/08 06:54:31;;;;;;;9.20;7.60;;;;;;;;;;5064739;28;20198;-71
2021/05/08 06:56:57;;;;;;;10.00;8.07;;;;;;;;;;5054879;28;20185;-70
2021/05/08 06:59:22;;;;;;;11.47;8.27;;;;;;;;;;5061980;28;20183;-71
2021/05/08 07:01:47;;;;;;;11.37;8.07;;;;;;;;;;5054010;28;20709;-70
2021/05/08 07:04:12;;;;;;;8.40;7.60;;;;;;;;;;5060415;28;20268;-70
2021/05/08 07:06:37;;;;;;;11.77;7.97;;;;;;;;;;5061265;28;20573;-71
2021/05/08 07:09:03;;;;;;;10.53;7.40;;;;;;;;;;5056183;28;20228;-71
2021/05/08 07:11:28;;;;;;;11.87;8.17;;;;;;;;;;5059078;28;20747;-70
2021/05/08 07:13:53;;;;;;;9.03;7.67;;;;;;;;;;5062307;28;20169;-71
2021/05/08 07:16:18;;;;;;;8.23;7.13;;;;;;;;;;5058054;28;20173;-70
2021/05/08 07:18:44;;;;;;;9.80;7.47;;;;;;;;;;5059729;28;20298;-71
2021/05/08 07:21:09;;;;;;;8.70;7.20;;;;;;;;;;5061061;28;20200;-70
2021/05/08 07:23:34;;;;;;;8.83;7.33;;;;;;;;;;5064593;28;20177;-71
2021/05/08 07:25:59;;;;;;;8.23;6.77;;;;;;;;;;5056567;28;20197;-70
2021/05/08 07:28:25;;;;;;;12.20;7.50;;;;;;;;;;5058092;28;20629;-71
2021/05/08 07:30:52;;;;;;;8.23;7.40;;;;;;;;;;5056511;28;20208;-71
2021/05/08 07:33:18;;;;;;;8.73;6.70;;;;;;;;;;5061566;28;20189;-72
2021/05/08 07:35:44;;;;;;;8.43;7.17;;;;;;;;;;5060367;28;20223;-70
2021/05/08 07:38:09;;;;;;;11.60;7.73;;;;;;;;;;5073071;28;20598;-71
2021/05/08 07:40:35;;;;;;;7.87;6.90;;;;;;;;;;5063867;28;20248;-71
2021/05/08 07:43:00;;;;;;;9.53;6.70;;;;;;;;;;5066427;28;20188;-70
2021/05/08 07:45:26;;;;;;;10.33;7.30;;;;;;;;;;5065160;28;20205;-71
2021/05/08 07:47:52;;;;;;;9.57;7.70;;;;;;;;;;5068475;28;20227;-70
2021/05/08 07:50:17;;;;;;;12.03;7.57;;;;;;;;;;5060216;28;20177;-70
2021/05/08 07:52:42;;;;;;;9.17;8.00;;;;;;;;;;5059016;28;20198;-70
2021/05/08 07:55:08;;;;;;;10.77;7.00;;;;;;;;;;5061649;28;20185;-70
2021/05/08 07:57:33;;;;;;;9.87;6.87;;;;;;;;;;5061640;28;20194;-71
2021/05/08 07:59:58;;;;;;;8.33;7.00;;;;;;;;;;5061345;28;20173;-70
2021/05/08 08:02:24;;;;;;;9.73;7.67;;;;;;;;;;5066294;28;20743;-70
2021/05/08 08:04:49;;;;;;;10.17;7.33;;;;;;;;;;5054024;28;20695;-70
2021/05/08 08:07:14;;;;;;;10.03;7.37;;;;;;;;;;5065569;28;20181;-70
2021/05/08 08:09:41;;;;;;;9.70;7.40;;;;;;;;;;5058849;28;20173;-71
2021/05/08 08:12:06;;;;;;;8.03;6.60;;;;;;;;;;5061848;28;20198;-71
2021/05/08 08:14:31;;;;;;;10.13;6.80;;;;;;;;;;5065821;28;20211;-71
2021/05/08 08:16:56;;;;;;;8.20;6.67;;;;;;;;;;5060577;28;20188;-70
2021/05/08 08:19:22;;;;;;;9.87;6.93;;;;;;;;;;5058392;28;20227;-71
2021/05/08 08:21:47;;;;;;;8.97;6.87;;;;;;;;;;5063908;28;20601;-71
2021/05/08 08:24:12;;;;;;;8.60;6.93;;;;;;;;;;5063049;28;20185;-71
2021/05/08 08:26:37;;;;;;;8.07;7.17;;;;;;;;;;5061181;28;20200;-71
2021/05/08 08:29:03;;;;;;;7.87;6.80;;;;;;;;;;5058947;28;20182;-70
2021/05/08 08:31:28;;;;;;;9.73;6.23;;;;;;;;;;5062206;28;20204;-71
2021/05/08 08:33:53;;;;;;;9.37;6.53;;;;;;;;;;5059119;28;20173;-71
2021/05/08 08:36:18;;;;;;;7.73;6.70;;;;;;;;;;5064493;28;20598;-71
2021/05/08 08:38:44;;;;;;;6.70;5.70;;;;;;;;;;5058809;28;20201;-70
2021/05/08 08:41:09;;;;;;;8.57;6.53;;;;;;;;;;5066232;28;20183;-71
2021/05/08 08:43:34;;;;;;;9.13;6.40;;;;;;;;;;5063967;28;20196;-70
2021/05/08 08:46:02;;;;;;;9.40;6.03;;;;;;;;;;5055000;28;20585;-71
2021/05/08 08:48:27;;;;;;;7.87;5.93;;;;;;;;;;5060169;28;20170;-71
2021/05/08 08:50:52;;;;;;;9.13;6.50;;;;;;;;;;5058694;28;20177;-71
2021/05/08 08:53:17;;;;;;;7.93;6.43;;;;;;;;;;5064038;28;20189;-69
2021/05/08 08:55:51;;;;;;;9.33;6.10;;;;;;;;;;5070526;28;20553;-71
2021/05/08 08:58:16;;;;;;;8.20;6.27;;;;;;;;;;5061236;28;20268;-70
2021/05/08 09:00:42;;;;;;;7.32;5.22;;;;;;;;;;5063199;28;20268;-70
2021/05/08 09:03:07;;;;;;;6.38;5.70;;;;;;;;;;5068027;28;22201;-70
2021/05/08 09:05:32;;;;;;;6.50;5.90;;;;;;;;;;5061181;28;20243;-70
2021/05/08 09:08:01;;;;;;;8.15;5.60;;;;;;;;;;5065021;28;20173;-70
2021/05/08 09:10:27;;;;;;;7.70;5.85;;;;;;;;;;5060852;28;20209;-69
2021/05/08 09:12:54;;;;;;;8.98;6.30;;;;;;;;;;5063005;28;20573;-70
2021/05/08 09:15:32;;;;;;;7.93;5.40;;;;;;;;;;5066276;28;20543;-70
2021/05/08 09:17:57;;;;;;;7.25;4.95;;;;;;;;;;5064077;28;20234;-69
2021/05/08 09:20:23;;;;;;;7.28;5.70;;;;;;;;;;5061662;28;20264;-71
2021/05/08 09:22:49;;;;;;;7.18;4.95;;;;;;;;;;5066634;28;20193;-70
2021/05/08 09:25:15;;;;;;;8.15;4.97;;;;;;;;;;5067720;28;20596;-71
2021/05/08 09:27:47;;;;;;;8.73;5.22;;;;;;;;;;5060142;28;20181;-71
2021/05/08 09:30:13;;;;;;;6.88;5.35;;;;;;;;;;5061980;28;20272;-70
2021/05/08 09:32:39;;;;;;;7.20;5.25;;;;;;;;;;5058533;28;20274;-70
2021/05/08 09:35:07;;;;;;;5.95;4.82;;;;;;;;;;5061032;28;20181;-70
2021/05/08 09:37:32;;;;;;;7.35;4.00;;;;;;;;;;5062890;28;20192;-70
2021/05/08 09:40:10;;;;;;;5.32;3.80;;;;;;;;;;5061253;28;20173;-71
2021/05/08 09:42:42;;;;;;;6.05;4.18;;;;;;;;;;5058365;28;20200;-70
2021/05/08 09:45:08;;;;;;;7.95;4.78;;;;;;;;;;5058463;28;20287;-70
2021/05/08 09:47:33;;;;;;;6.13;5.32;;;;;;;;;;5052615;28;20256;-70
2021/05/08 09:49:58;;;;;;;10.60;5.38;;;;;;;;;;5053079;28;20185;-71
2021/05/08 09:52:23;;;;;;;5.15;4.43;;;;;;;;;;5052321;28;20228;-71
2021/05/08 09:55:01;;;;;;;6.47;4.43;;;;;;;;;;5054928;28;20191;-71
2021/05/08 09:57:27;;;;;;;5.25;4.15;;;;;;;;;;5051666;28;20177;-71
2021/05/08 09:59:54;;;;;;;5.32;3.85;;;;;;;;;;5052227;28;20705;-70
2021/05/08 10:02:19;;;;;;;4.20;3.80;;;;;;;;;;5059185;28;20201;-71
2021/05/08 10:04:46;;;;;;;4.55;3.28;;;;;;;;;;5055006;28;20208;-71
2021/05/08 10:07:17;;;;;;;5.65;4.80;;;;;;;;;;5051496;28;20173;-71
2021/05/08 10:09:43;;;;;;;6.32;4.07;;;;;;;;;;5051987;28;20176;-69
2021/05/08 10:12:09;;;;;;;6.82;4.10;;;;;;;;;;5053958;28;20197;-70
2021/05/08 10:14:35;;;;;;;4.50;4.10;;;;;;;;;;5054394;28;20571;-71
2021/05/08 10:17:00;;;;;;;6.15;3.90;;;;;;;;;;5050367;28;20185;-70
2021/05/08 10:19:29;;;;;;;4.67;3.90;;;;;;;;;;5054149;28;20178;-69
2021/05/08 10:21:56;;;;;;;6.80;4.45;;;;;;;;;;5057302;28;20250;-69
2021/05/08 10:24:22;;;;;;;4.80;4.13;;;;;;;;;;5060077;28;20185;-70
2021/05/08 10:26:48;;;;;;;4.23;3.73;;;;;;;;;;5062552;28;20174;-71
2021/05/08 10:29:14;;;;;;;7.63;4.53;;;;;;;;;;5049123;28;20268;-71
2021/05/08 10:31:39;;;;;;;7.03;4.30;;;;;;;;;;5055044;28;20347;-70
2021/05/08 10:34:04;;;;;;;4.45;3.70;;;;;;;;;;5051579;28;20182;-68
2021/05/08 10:36:45;;;;;;;5.50;4.30;;;;;;;;;;5052513;28;20279;-71
2021/05/08 10:39:10;;;;;;;6.43;4.20;;;;;;;;;;5055752;28;20594;-70
2021/05/08 10:41:51;;;;;;;5.63;4.23;;;;;;;;;;5053354;28;20223;-72
2021/05/08 10:44:35;;;;;;;7.37;4.57;;;;;;;;;;5051480;28;20646;-71
2021/05/08 10:47:01;;;;;;;4.47;3.83;;;;;;;;;;5054881;28;20622;-71
2021/05/08 10:49:26;;;;;;;6.70;4.57;;;;;;;;;;5051403;28;20186;-72
2021/05/08 10:51:57;;;;;;;8.33;3.90;;;;;;;;;;5050446;28;20196;-70
2021/05/08 10:54:46;;;;;;;5.43;4.20;;;;;;;;;;5050379;28;20544;-72
2021/05/08 10:57:15;;;;;;;4.63;3.83;;;;;;;;;;5056282;28;20193;-72
2021/05/08 10:59:59;;;;;;;4.70;3.90;;;;;;;;;;5053714;28;20745;-72
2021/05/08 11:02:45;;;;;;;3.80;3.40;;;;;;;;;;5046470;28;20205;-70
2021/05/08 11:05:19;;;;;;;5.50;4.10;;;;;;;;;;5055191;28;20271;-72
2021/05/08 11:07:44;;;;;;;4.57;4.13;;;;;;;;;;5054000;28;20169;-72
2021/05/08 11:10:28;;;;;;;5.73;4.37;;;;;;;;;;5052577;28;20212;-72
2021/05/08 11:13:07;;;;;;;3.83;3.43;;;;;;;;;;5051703;28;20198;-72
2021/05/08 11:15:51;;;;;;;4.83;3.30;;;;;;;;;;5052445;28;20468;-71
2021/05/08 11:21:08;;;;;;;4.00;3.43;;;;;;;;;;5051402;28;20188;-72
2021/05/08 11:23:42;;;;;;;7.10;3.67;;;;;;;;;;5051900;28;20837;-71
2021/05/08 11:26:26;;;;;;;7.70;3.90;;;;;;;;;;5052543;28;20779;-72
2021/05/08 11:28:52;;;;;;;4.53;3.43;;;;;;;;;;5050104;28;20268;-72
2021/05/08 11:31:24;;;;;;;4.47;3.67;;;;;;;;;;5051098;28;20298;-72
2021/05/08 11:33:50;;;;;;;4.00;3.60;;;;;;;;;;5057198;28;20462;-72
2021/05/08 11:36:15;;;;;;;8.03;4.20;;;;;;;;;;5051050;28;20272;-72
2021/05/08 11:38:40;;;;;;;4.23;3.77;;;;;;;;;;5048557;28;20208;-72
2021/05/08 11:41:22;;;;;;;7.27;4.40;;;;;;;;;;5050782;28;20598;-71
2021/05/08 11:43:54;;;;;;;4.37;3.80;;;;;;;;;;5053512;28;20177;-70
2021/05/08 11:46:22;;;;;;;4.37;3.73;;;;;;;;;;5048820;28;20244;-71
2021/05/08 11:48:51;;;;;;;5.23;3.83;;;;;;;;;;5053536;28;20181;-72
2021/05/08 11:51:16;;;;;;;5.50;4.10;;;;;;;;;;5056172;28;20469;-72
2021/05/08 11:53:41;;;;;;;6.37;4.13;;;;;;;;;;5051950;28;20605;-71
2021/05/08 11:56:06;;;;;;;4.40;4.00;;;;;;;;;;5057854;28;20190;-72
2021/05/08 11:58:31;;;;;;;6.10;4.63;;;;;;;;;;5062807;28;20190;-71
2021/05/08 12:00:57;;;;;;;5.47;4.10;;;;;;;;;;5067480;28;20196;-71
2021/05/08 12:03:24;;;;;;;4.60;3.47;;;;;;;;;;5060605;28;20940;-71
2021/05/08 12:05:49;;;;;;;4.90;3.93;;;;;;;;;;5061933;28;20687;-71
2021/05/08 12:08:16;;;;;;;7.57;4.10;;;;;;;;;;5065727;28;20188;-71
2021/05/08 12:10:42;;;;;;;6.70;4.50;;;;;;;;;;5067035;28;20638;-71
2021/05/08 12:13:08;;;;;;;4.30;3.73;;;;;;;;;;5059603;28;20213;-71
2021/05/08 12:15:37;;;;;;;4.40;3.60;;;;;;;;;;5066267;28;20183;-71
2021/05/08 12:18:03;;;;;;;4.87;4.47;;;;;;;;;;5052835;28;20189;-71
2021/05/08 12:20:30;;;;;;;7.33;3.73;;;;;;;;;;5051670;28;20541;-71
2021/05/08 12:23:00;;;;;;;7.37;4.00;;;;;;;;;;5055235;28;20209;-71
2021/05/08 12:25:25;;;;;;;5.43;3.67;;;;;;;;;;5053788;28;20671;-71
2021/05/08 12:28:09;;;;;;;4.90;3.83;;;;;;;;;;5054756;28;20174;-71
2021/05/08 12:30:35;;;;;;;4.00;3.50;;;;;;;;;;5056611;28;20170;-72
2021/05/08 12:33:01;;;;;;;6.40;4.03;;;;;;;;;;5054482;28;20201;-69
2021/05/08 12:35:26;;;;;;;5.07;3.77;;;;;;;;;;5051537;28;20212;-70
2021/05/08 12:37:51;;;;;;;5.87;3.77;;;;;;;;;;5055571;28;20228;-69
2021/05/08 12:40:28;;;;;;;7.17;3.83;;;;;;;;;;5056282;28;20205;-69
2021/05/08 12:42:53;;;;;;;4.40;4.00;;;;;;;;;;5054886;28;20212;-70
2021/05/08 12:45:19;;;;;;;4.63;3.70;;;;;;;;;;5053963;28;20200;-70
2021/05/08 12:47:46;;;;;;;5.23;3.73;;;;;;;;;;5061794;28;20707;-71
2021/05/08 12:50:13;;;;;;;4.10;3.80;;;;;;;;;;5054023;28;20181;-71
2021/05/08 12:52:40;;;;;;;4.97;4.10;;;;;;;;;;5065490;28;20196;-72
2021/05/08 12:55:05;;;;;;;4.33;3.80;;;;;;;;;;5058325;28;20177;-72
2021/05/08 12:57:40;;;;;;;3.83;3.50;;;;;;;;;;5061326;28;20648;-72
2021/05/08 13:00:06;;;;;;;5.47;3.53;;;;;;;;;;5057768;28;20189;-72
2021/05/08 13:02:32;;;;;;;4.70;3.87;;;;;;;;;;5059191;28;20260;-72
2021/05/08 13:05:08;;;;;;;4.70;4.20;;;;;;;;;;5055939;28;20201;-71
2021/05/08 13:07:35;;;;;;;6.77;5.27;;;;;;;;;;5058298;28;20177;-71
2021/05/08 13:10:18;;;;;;;7.90;4.83;;;;;;;;;;5054394;28;20608;-70
2021/05/08 13:12:44;;;;;;;5.67;4.43;;;;;;;;;;5058073;28;20208;-71
2021/05/08 13:15:13;;;;;;;8.63;5.93;;;;;;;;;;5056584;28;20177;-70
2021/05/08 13:17:38;;;;;;;7.07;5.83;;;;;;;;;;5054457;28;20184;-71
2021/05/08 13:20:07;;;;;;;5.37;4.77;;;;;;;;;;5050008;28;20847;-70
2021/05/08 13:22:33;;;;;;;5.47;4.93;;;;;;;;;;5048434;28;20201;-71
2021/05/08 13:24:59;;;;;;;8.87;6.27;;;;;;;;;;5051402;28;20259;-71
2021/05/08 13:27:24;;;;;;;13.67;6.00;;;;;;;;;;5050398;28;20502;-70
2021/05/08 13:29:50;;;;;;;5.90;5.30;;;;;;;;;;5052799;28;20216;-70
2021/05/08 13:32:15;;;;;;;7.03;5.80;;;;;;;;;;5054220;28;20197;-72
2021/05/08 13:34:40;;;;;;;6.07;5.47;;;;;;;;;;5056131;28;20181;-70
2021/05/08 13:37:05;;;;;;;7.87;5.57;;;;;;;;;;5050013;28;20186;-72
2021/05/08 13:39:30;;;;;;;9.63;6.00;;;;;;;;;;5056500;28;20193;-71
2021/05/08 13:41:55;;;;;;;10.33;5.90;;;;;;;;;;5060586;28;20205;-71
2021/05/08 13:44:21;;;;;;;7.40;6.53;;;;;;;;;;5057404;28;20199;-72
2021/05/08 13:46:46;;;;;;;7.10;5.77;;;;;;;;;;5053041;28;20181;-71
2021/05/08 13:49:12;;;;;;;7.83;6.80;;;;;;;;;;5051687;28;20636;-73
2021/05/08 13:51:37;;;;;;;7.00;6.30;;;;;;;;;;5050596;28;20235;-72
2021/05/08 13:54:02;;;;;;;8.47;7.00;;;;;;;;;;5051802;28;20188;-72
2021/05/08 13:56:27;;;;;;;7.63;6.73;;;;;;;;;;5054524;28;20178;-71
2021/05/08 13:58:53;;;;;;;7.90;6.70;;;;;;;;;;5051168;28;20204;-71
2021/05/08 14:01:18;;;;;;;8.23;6.03;;;;;;;;;;5048727;28;20291;-71
2021/05/08 14:03:43;;;;;;;7.23;6.43;;;;;;;;;;5051168;28;20186;-70
2021/05/08 14:06:08;;;;;;;7.63;6.93;;;;;;;;;;5050144;28;20291;-71
2021/05/08 14:08:33;;;;;;;7.17;6.27;;;;;;;;;;5050873;28;20182;-71
2021/05/08 14:11:01;;;;;;;7.67;6.07;;;;;;;;;;5051041;28;20177;-70
2021/05/08 14:13:26;;;;;;;7.83;6.53;;;;;;;;;;5049957;28;20188;-71
2021/05/08 14:15:51;;;;;;;7.47;5.63;;;;;;;;;;5051734;28;20175;-70
2021/05/08 14:18:16;;;;;;;8.90;6.60;;;;;;;;;;5051794;28;20189;-70
2021/05/08 14:20:42;;;;;;;8.20;7.17;;;;;;;;;;5049989;28;20212;-71
2021/05/08 14:23:07;;;;;;;8.37;6.83;;;;;;;;;;5049950;28;20771;-70
2021/05/08 14:25:32;;;;;;;8.47;7.00;;;;;;;;;;5049303;28;20236;-70
2021/05/08 14:27:57;;;;;;;8.43;6.93;;;;;;;;;;5050426;28;20181;-73
2021/05/08 14:30:22;;;;;;;8.07;5.73;;;;;;;;;;5055213;28;20717;-70
2021/05/08 14:32:48;;;;;;;8.30;6.83;;;;;;;;;;5053152;28;20708;-70